createdAt,value
2022-10-25T00:01:58.761Z,100696.25
2022-10-25T00:04:27.211Z,100689.71
2022-10-25T00:06:55.593Z,100686.40
2022-10-25T00:09:23.939Z,100683.07
2022-10-25T00:11:52.306Z,100679.17
2022-10-25T00:14:21.124Z,100678.17
2022-10-25T00:16:49.576Z,100682.63
2022-10-25T00:19:18.016Z,100685.79
2022-10-25T00:21:46.409Z,100688.35
2022-10-25T00:24:15.451Z,100688.63
2022-10-25T00:26:43.936Z,100690.00
2022-10-25T00:29:12.371Z,100689.61
2022-10-25T00:31:40.851Z,100684.83
2022-10-25T00:34:09.325Z,100682.38
2022-10-25T00:36:37.634Z,100684.40
2022-10-25T00:39:06.225Z,100682.09
2022-10-25T00:41:34.946Z,100682.05
2022-10-25T00:44:39.662Z,100679.48
2022-10-25T00:47:15.390Z,100672.00
2022-10-25T00:49:46.334Z,100671.61
2022-10-25T00:52:15.094Z,100672.81
2022-10-25T00:54:47.673Z,100670.98
2022-10-25T00:57:19.630Z,100672.41
2022-10-25T00:59:48.967Z,100675.59
2022-10-25T01:02:19.720Z,100671.86
2022-10-25T01:04:48.995Z,100674.15
2022-10-25T01:07:17.493Z,100675.02
2022-10-25T01:09:46.012Z,100672.56
2022-10-25T01:12:14.305Z,100671.34
2022-10-25T01:14:48.083Z,100677.30
2022-10-25T01:17:23.240Z,100672.13
2022-10-25T01:20:18.041Z,100672.92
2022-10-25T01:22:54.196Z,100675.63
2022-10-25T01:25:48.928Z,100672.66
2022-10-25T01:28:26.555Z,100671.79
2022-10-25T01:31:15.550Z,100675.27
2022-10-25T01:33:53.253Z,100675.14
2022-10-25T01:36:30.531Z,100670.72
2022-10-25T01:39:05.787Z,100669.16
2022-10-25T01:41:41.216Z,100669.71
2022-10-25T01:44:21.913Z,100662.84
2022-10-25T01:46:54.556Z,100665.67
2022-10-25T01:49:28.709Z,100669.03
2022-10-25T01:51:57.233Z,100670.54
2022-10-25T01:54:26.577Z,100666.19
2022-10-25T01:57:24.163Z,100662.76
2022-10-25T02:00:07.175Z,100667.27
2022-10-25T02:03:11.090Z,100670.77
2022-10-25T02:05:53.776Z,100675.15
2022-10-25T02:08:30.079Z,100672.27
2022-10-25T02:11:06.291Z,100672.34
2022-10-25T02:13:43.952Z,100671.06
2022-10-25T02:16:15.796Z,100672.23
2022-10-25T02:18:48.693Z,100674.23
2022-10-25T02:21:19.082Z,100671.83
2022-10-25T02:23:49.814Z,100669.46
2022-10-25T02:26:20.282Z,100669.05
2022-10-25T02:28:49.465Z,100667.20
2022-10-25T02:31:21.881Z,100669.27
2022-10-25T02:33:50.843Z,100664.98
2022-10-25T02:36:21.823Z,100663.06
2022-10-25T02:38:52.209Z,100661.23
2022-10-25T02:41:21.942Z,100662.11
2022-10-25T02:43:50.771Z,100666.54
2022-10-25T02:46:20.925Z,100664.73
2022-10-25T02:48:49.755Z,100664.73
2022-10-25T02:51:18.889Z,100664.55
2022-10-25T02:53:47.298Z,100665.06
2022-10-25T02:56:18.907Z,100664.55
2022-10-25T02:58:49.450Z,100661.44
2022-10-25T03:01:19.360Z,100664.92
2022-10-25T03:03:48.154Z,100658.42
2022-10-25T03:06:16.851Z,100656.18
2022-10-25T03:08:46.237Z,100656.89
2022-10-25T03:11:16.220Z,100653.75
2022-10-25T03:13:44.965Z,100652.35
2022-10-25T03:16:13.434Z,100649.37
2022-10-25T03:18:41.806Z,100654.56
2022-10-25T03:21:10.593Z,100654.38
2022-10-25T03:23:39.205Z,100660.59
2022-10-25T03:26:07.592Z,100664.09
2022-10-25T03:28:36.093Z,100668.59
2022-10-25T03:31:16.303Z,100669.60
2022-10-25T03:33:44.858Z,100661.11
2022-10-25T03:36:13.709Z,100667.42
2022-10-25T03:38:42.087Z,100670.17
2022-10-25T03:41:10.606Z,100667.36
2022-10-25T03:43:39.039Z,100669.09
2022-10-25T03:46:07.487Z,100670.28
2022-10-25T03:48:35.895Z,100667.37
2022-10-25T03:51:04.495Z,100659.04
2022-10-25T03:53:32.972Z,100659.79
2022-10-25T03:56:01.421Z,100660.40
2022-10-25T03:58:29.778Z,100656.29
2022-10-25T04:00:59.299Z,100651.05
2022-10-25T04:03:27.714Z,100649.73
2022-10-25T04:05:56.099Z,100651.54
2022-10-25T04:08:24.605Z,100653.90
2022-10-25T04:10:52.994Z,100654.49
2022-10-25T04:13:24.370Z,100654.91
2022-10-25T04:15:52.784Z,100658.48
2022-10-25T04:18:23.399Z,100656.08
2022-10-25T04:20:51.767Z,100650.92
2022-10-25T04:23:20.158Z,100648.77
2022-10-25T04:25:48.498Z,100650.19
2022-10-25T04:28:16.890Z,100656.83
2022-10-25T04:30:45.300Z,100657.66
2022-10-25T04:33:13.822Z,100656.27
2022-10-25T04:35:42.213Z,100656.98
2022-10-25T04:38:10.969Z,100661.17
2022-10-25T04:40:39.245Z,100663.44
2022-10-25T04:43:07.625Z,100669.26
2022-10-25T04:45:36.258Z,100667.52
2022-10-25T04:48:05.258Z,100662.77
2022-10-25T04:50:33.617Z,100660.60
2022-10-25T04:53:01.925Z,100664.38
2022-10-25T04:55:30.832Z,100664.92
2022-10-25T04:57:59.221Z,100669.12
2022-10-25T05:00:28.027Z,100668.33
2022-10-25T05:02:56.989Z,100665.73
2022-10-25T05:05:26.234Z,100664.71
2022-10-25T05:07:54.754Z,100662.63
2022-10-25T05:10:23.085Z,100663.25
2022-10-25T05:12:53.814Z,100663.11
2022-10-25T05:15:23.291Z,100664.28
2022-10-25T05:17:51.683Z,100669.06
2022-10-25T05:20:20.205Z,100674.77
2022-10-25T05:22:48.871Z,100680.13
2022-10-25T05:25:18.165Z,100677.91
2022-10-25T05:27:46.520Z,100679.13
2022-10-25T05:30:15.152Z,100679.36
2022-10-25T05:32:43.576Z,100680.84
2022-10-25T05:35:11.982Z,100686.23
2022-10-25T05:37:40.321Z,100681.65
2022-10-25T05:40:11.465Z,100680.61
2022-10-25T05:42:39.859Z,100680.70
2022-10-25T05:45:09.770Z,100688.85
2022-10-25T05:47:38.175Z,100692.05
2022-10-25T05:50:07.943Z,100695.36
2022-10-25T05:52:36.597Z,100704.02
2022-10-25T05:55:06.741Z,100707.97
2022-10-25T05:57:35.136Z,100712.44
2022-10-25T06:00:05.911Z,100714.74
2022-10-25T06:02:34.871Z,100709.23
2022-10-25T06:05:03.709Z,100710.90
2022-10-25T06:07:32.157Z,100715.82
2022-10-25T06:10:00.563Z,100715.61
2022-10-25T06:12:28.897Z,100719.95
2022-10-25T06:14:57.311Z,100723.11
2022-10-25T06:17:25.846Z,100721.31
2022-10-25T06:19:54.195Z,100723.39
2022-10-25T06:22:22.507Z,100722.83
2022-10-25T06:24:53.902Z,100725.67
2022-10-25T06:27:22.253Z,100723.27
2022-10-25T06:29:50.623Z,100729.00
2022-10-25T06:32:19.451Z,100731.84
2022-10-25T06:34:48.123Z,100734.30
2022-10-25T06:37:16.473Z,100739.16
2022-10-25T06:39:46.240Z,100743.17
2022-10-25T06:42:14.665Z,100746.90
2022-10-25T06:44:43.005Z,100751.02
2022-10-25T06:47:17.505Z,100749.86
2022-10-25T06:49:46.711Z,100749.58
2022-10-25T06:52:15.285Z,100751.46
2022-10-25T06:54:43.629Z,100752.23
2022-10-25T06:57:12.034Z,100751.13
2022-10-25T06:59:40.384Z,100753.98
2022-10-25T07:02:10.205Z,100752.32
2022-10-25T07:04:38.722Z,100747.55
2022-10-25T07:07:07.082Z,100753.89
2022-10-25T07:09:35.583Z,100756.48
2022-10-25T07:12:07.644Z,100756.62
2022-10-25T07:14:38.585Z,100760.81
2022-10-25T07:17:07.018Z,100755.12
2022-10-25T07:19:35.439Z,100757.60
2022-10-25T07:22:03.927Z,100752.46
2022-10-25T07:24:32.561Z,100759.47
2022-10-25T07:27:00.970Z,100758.84
2022-10-25T07:29:29.387Z,100761.14
2022-10-25T07:32:00.473Z,100759.77
2022-10-25T07:34:29.246Z,100760.67
2022-10-25T07:36:57.890Z,100759.33
2022-10-25T07:39:26.281Z,100758.98
2022-10-25T07:41:54.700Z,100766.87
2022-10-25T07:44:25.067Z,100767.07
2022-10-25T07:46:54.937Z,100765.55
2022-10-25T07:49:23.385Z,100762.68
2022-10-25T07:51:51.789Z,100758.55
2022-10-25T07:54:20.222Z,100761.17
2022-10-25T07:56:48.615Z,100763.73
2022-10-25T07:59:16.991Z,100764.90
2022-10-25T08:01:45.489Z,100765.23
2022-10-25T08:04:14.287Z,100764.41
2022-10-25T08:06:42.638Z,100769.98
2022-10-25T08:09:14.898Z,100777.08
2022-10-25T08:11:48.948Z,100777.85
2022-10-25T08:14:17.599Z,100775.92
2022-10-25T08:16:46.202Z,100769.47
2022-10-25T08:19:14.645Z,100777.25
2022-10-25T08:21:43.266Z,100770.88
2022-10-25T08:24:12.104Z,100766.88
2022-10-25T08:26:40.573Z,100769.30
2022-10-25T08:29:09.156Z,100770.79
2022-10-25T08:31:37.845Z,100775.34
2022-10-25T08:34:06.643Z,100775.55
2022-10-25T08:36:35.480Z,100776.88
2022-10-25T08:39:04.365Z,100773.73
2022-10-25T08:41:42.716Z,100779.29
2022-10-25T08:44:23.456Z,100776.84
2022-10-25T08:46:59.854Z,100778.83
2022-10-25T08:49:38.596Z,100782.66
2022-10-25T08:52:17.987Z,100783.34
2022-10-25T08:54:48.196Z,100786.67
2022-10-25T08:57:22.973Z,100786.08
2022-10-25T08:59:55.013Z,100791.81
2022-10-25T09:02:32.963Z,100789.29
2022-10-25T09:05:01.623Z,100789.48
2022-10-25T09:07:47.407Z,100785.00
2022-10-25T09:10:29.532Z,100796.03
2022-10-25T09:13:11.552Z,100795.45
2022-10-25T09:15:52.890Z,100799.88
2022-10-25T09:18:29.731Z,100803.61
2022-10-25T09:21:01.807Z,100802.74
2022-10-25T09:23:32.070Z,100807.23
2022-10-25T09:26:09.604Z,100808.39
2022-10-25T09:28:50.361Z,100807.98
2022-10-25T09:31:22.718Z,100810.68
2022-10-25T09:33:58.863Z,100816.17
2022-10-25T09:36:36.901Z,100818.66
2022-10-25T09:39:15.792Z,100823.02
2022-10-25T09:41:49.567Z,100824.73
2022-10-25T09:44:31.937Z,100825.38
2022-10-25T09:47:08.545Z,100819.98
2022-10-25T09:49:42.683Z,100821.63
2022-10-25T09:52:19.881Z,100831.70
2022-10-25T09:54:53.263Z,100829.23
2022-10-25T09:57:21.935Z,100827.36
2022-10-25T09:59:51.725Z,100829.59
2022-10-25T10:02:24.622Z,100826.27
2022-10-25T10:04:53.639Z,100827.65
2022-10-25T10:07:26.534Z,100824.80
2022-10-25T10:09:59.995Z,100820.64
2022-10-25T10:12:36.451Z,100826.49
2022-10-25T10:15:11.774Z,100833.77
2022-10-25T10:17:40.151Z,100827.00
2022-10-25T10:20:13.486Z,100822.80
2022-10-25T10:25:25.710Z,100821.71
2022-10-25T10:27:56.406Z,100819.04
2022-10-25T10:30:32.068Z,100819.02
2022-10-25T10:33:01.833Z,100817.21
2022-10-25T10:35:32.719Z,100817.34
2022-10-25T10:38:23.604Z,100817.36
2022-10-25T10:41:12.261Z,100820.09
2022-10-25T10:43:41.489Z,100822.45
2022-10-25T10:46:17.058Z,100821.33
2022-10-25T10:48:52.541Z,100824.02
2022-10-25T10:51:43.716Z,100824.42
2022-10-25T10:54:21.399Z,100821.01
2022-10-25T10:56:55.262Z,100820.16
2022-10-25T10:59:31.465Z,100821.43
2022-10-25T11:02:11.961Z,100823.63
2022-10-25T11:04:48.602Z,100825.86
2022-10-25T11:07:25.581Z,100829.27
2022-10-25T11:10:12.730Z,100827.99
2022-10-25T11:12:41.433Z,100833.21
2022-10-25T11:15:12.766Z,100830.99
2022-10-25T11:17:48.564Z,100830.93
2022-10-25T11:20:27.568Z,100832.71
2022-10-25T11:23:06.006Z,100828.95
2022-10-25T11:25:41.318Z,100827.35
2022-10-25T11:28:32.893Z,100823.53
2022-10-25T11:31:15.468Z,100832.32
2022-10-25T11:33:56.003Z,100830.13
2022-10-25T11:36:34.340Z,100829.62
2022-10-25T11:39:12.309Z,100829.11
2022-10-25T11:41:47.337Z,100835.90
2022-10-25T11:44:52.050Z,100833.59
2022-10-25T11:47:42.370Z,100838.55
2022-10-25T11:50:24.461Z,100840.99
2022-10-25T11:53:32.722Z,100843.40
2022-10-25T11:56:11.757Z,100847.80
2022-10-25T11:58:50.764Z,100848.81
2022-10-25T12:01:31.555Z,100851.58
2022-10-25T12:04:25.460Z,100845.48
2022-10-25T12:07:04.210Z,100842.98
2022-10-25T12:09:42.312Z,100844.81
2022-10-25T12:12:13.577Z,100842.95
2022-10-25T12:14:46.052Z,100839.20
2022-10-25T12:17:23.089Z,100840.32
2022-10-25T12:19:54.067Z,100843.39
2022-10-25T12:22:26.521Z,100845.20
2022-10-25T12:24:59.442Z,100849.14
2022-10-25T12:27:30.155Z,100851.11
2022-10-25T12:30:03.973Z,100852.27
2022-10-25T12:32:39.341Z,100854.30
2022-10-25T12:35:20.393Z,100852.19
2022-10-25T12:37:55.101Z,100853.30
2022-10-25T12:40:28.272Z,100849.56
2022-10-25T12:43:01.772Z,100850.73
2022-10-25T12:45:55.971Z,100854.94
2022-10-25T12:48:51.252Z,100850.87
2022-10-25T12:51:37.881Z,100846.95
2022-10-25T12:54:20.358Z,100851.49
2022-10-25T12:57:00.432Z,100849.42
2022-10-25T12:59:44.118Z,100849.42
2022-10-25T13:02:34.379Z,100849.60
2022-10-25T13:05:26.540Z,100852.27
2022-10-25T13:07:59.029Z,100850.35
2022-10-25T13:10:31.697Z,100852.83
2022-10-25T13:13:02.462Z,100859.83
2022-10-25T13:15:41.928Z,100855.75
2022-10-25T13:18:38.757Z,100856.41
2022-10-25T13:21:08.788Z,100860.66
2022-10-25T13:24:02.241Z,100861.86
2022-10-25T13:27:14.424Z,100863.81
2022-10-25T13:30:00.383Z,100865.59
2022-10-25T13:32:31.079Z,100867.42
2022-10-25T13:34:59.582Z,100869.54
2022-10-25T13:37:44.822Z,100871.94
2022-10-25T13:40:25.705Z,100871.39
2022-10-25T13:43:04.316Z,100872.38
2022-10-25T13:45:41.132Z,100873.85
2022-10-25T13:48:21.603Z,100878.00
2022-10-25T13:50:55.379Z,100879.83
2022-10-25T13:53:26.419Z,100879.11
2022-10-25T13:56:02.540Z,100878.30
2022-10-25T13:58:50.888Z,100877.77
2022-10-25T14:01:53.570Z,100876.86
2022-10-25T14:04:34.178Z,100877.16
2022-10-25T14:07:40.132Z,100881.08
2022-10-25T14:10:16.964Z,100880.59
2022-10-25T14:12:49.386Z,100881.30
2022-10-25T14:15:30.217Z,100886.41
2022-10-25T14:18:04.970Z,100883.81
2022-10-25T14:20:36.404Z,100888.34
2022-10-25T14:23:12.936Z,100881.98
2022-10-25T14:25:42.908Z,100885.66
2022-10-25T14:28:15.861Z,100889.17
2022-10-25T14:30:46.940Z,100887.28
2022-10-25T14:33:35.470Z,100884.17
2022-10-25T14:36:21.813Z,100886.89
2022-10-25T14:38:52.096Z,100885.19
2022-10-25T14:41:26.051Z,100892.23
2022-10-25T14:43:56.937Z,100889.82
2022-10-25T14:46:26.825Z,100889.81
2022-10-25T14:49:03.847Z,100890.22
2022-10-25T14:51:35.157Z,100892.20
2022-10-25T14:54:17.071Z,100891.02
2022-10-25T14:56:51.399Z,100891.52
2022-10-25T14:59:25.810Z,100890.98
2022-10-25T15:01:57.147Z,100894.84
2022-10-25T15:04:32.438Z,100892.98
2022-10-25T15:07:05.854Z,100892.55
2022-10-25T15:09:47.514Z,100896.67
2022-10-25T15:12:19.231Z,100897.36
2022-10-25T15:14:51.215Z,100894.81
2022-10-25T15:17:26.295Z,100899.70
2022-10-25T15:20:04.013Z,100899.30
2022-10-25T15:22:41.143Z,100896.33
2022-10-25T15:25:26.906Z,100902.95
2022-10-25T15:27:55.858Z,100905.05
2022-10-25T15:30:35.832Z,100906.67
2022-10-25T15:33:09.082Z,100909.40
2022-10-25T15:35:45.959Z,100911.58
2022-10-25T15:38:16.752Z,100917.23
2022-10-25T15:40:45.876Z,100922.10
2022-10-25T15:43:14.713Z,100924.01
2022-10-25T15:45:43.474Z,100929.58
2022-10-25T15:48:15.247Z,100932.49
2022-10-25T15:50:48.761Z,100936.86
2022-10-25T15:53:18.253Z,100937.72
2022-10-25T15:55:51.254Z,100943.84
2022-10-25T15:58:19.725Z,100944.98
2022-10-25T16:00:51.319Z,100946.23
2022-10-25T16:03:22.541Z,100943.08
2022-10-25T16:05:52.152Z,100943.98
2022-10-25T16:08:20.938Z,100947.05
2022-10-25T16:10:51.689Z,100948.85
2022-10-25T16:13:26.995Z,100954.02
2022-10-25T16:15:55.672Z,100957.10
2022-10-25T16:20:57.319Z,100958.47
2022-10-25T16:23:27.632Z,100960.77
2022-10-25T16:25:56.528Z,100963.63
2022-10-25T16:30:54.338Z,100962.07
2022-10-25T16:33:23.539Z,100958.77
2022-10-25T16:35:52.000Z,100961.37
2022-10-25T16:38:20.639Z,100957.42
2022-10-25T16:40:49.416Z,100968.05
2022-10-25T16:43:17.740Z,100975.29
2022-10-25T16:45:46.089Z,100975.87
2022-10-25T16:48:14.537Z,100978.07
2022-10-25T16:50:43.004Z,100977.30
2022-10-25T16:53:12.938Z,100978.12
2022-10-25T16:55:41.532Z,100979.75
2022-10-25T16:58:10.214Z,100985.16
2022-10-25T17:00:38.615Z,100985.02
2022-10-25T17:03:07.533Z,100982.89
2022-10-25T17:05:38.424Z,100987.97
2022-10-25T17:08:10.037Z,100993.13
2022-10-25T17:10:42.385Z,100991.39
2022-10-25T17:13:16.274Z,100989.80
2022-10-25T17:15:44.730Z,100992.56
2022-10-25T17:18:17.980Z,100994.17
2022-10-25T17:20:46.639Z,100992.67
2022-10-25T17:23:15.044Z,100998.38
2022-10-25T17:25:43.470Z,100999.05
2022-10-25T17:28:12.082Z,100995.88
2022-10-25T17:30:42.227Z,101000.51
2022-10-25T17:33:10.719Z,101002.34
2022-10-25T17:35:41.868Z,101005.11
2022-10-25T17:38:10.393Z,101004.23
2022-10-25T17:40:39.114Z,101004.11
2022-10-25T17:43:07.605Z,101000.48
2022-10-25T17:45:36.054Z,101004.52
2022-10-25T17:48:05.343Z,101005.83
2022-10-25T17:50:35.468Z,101012.79
2022-10-25T17:53:03.832Z,101017.98
2022-10-25T17:55:40.884Z,101018.15
2022-10-25T17:58:09.588Z,101018.67
2022-10-25T18:00:38.199Z,101018.83
2022-10-25T18:03:06.596Z,101023.52
2022-10-25T18:05:37.935Z,101029.33
2022-10-25T18:08:06.727Z,101038.00
2022-10-25T18:10:35.435Z,101037.83
2022-10-25T18:13:03.788Z,101034.50
2022-10-25T18:15:34.466Z,101036.91
2022-10-25T18:18:02.975Z,101033.60
2022-10-25T18:20:31.762Z,101032.27
2022-10-25T18:23:00.129Z,101031.86
2022-10-25T18:25:28.555Z,101032.73
2022-10-25T18:27:56.936Z,101033.41
2022-10-25T18:30:25.413Z,101033.16
2022-10-25T18:32:53.884Z,101035.91
2022-10-25T18:35:22.258Z,101034.70
2022-10-25T18:37:51.092Z,101034.38
2022-10-25T18:40:19.791Z,101034.84
2022-10-25T18:42:48.234Z,101038.31
2022-10-25T18:45:16.944Z,101042.58
2022-10-25T18:47:52.480Z,101047.94
2022-10-25T18:50:21.165Z,101048.27
2022-10-25T18:52:53.608Z,101048.27
2022-10-25T18:55:25.721Z,101047.60
2022-10-25T18:57:54.822Z,101050.12
2022-10-25T19:00:25.717Z,101052.77
2022-10-25T19:02:55.895Z,101053.13
2022-10-25T19:05:27.765Z,101058.73
2022-10-25T19:08:00.048Z,101058.77
2022-10-25T19:10:30.257Z,101063.50
2022-10-25T19:13:03.548Z,101063.64
2022-10-25T19:15:32.272Z,101067.39
2022-10-25T19:18:01.118Z,101066.66
2022-10-25T19:20:29.640Z,101065.38
2022-10-25T19:22:58.086Z,101065.83
2022-10-25T19:25:29.048Z,101066.58
2022-10-25T19:27:58.024Z,101067.89
2022-10-25T19:30:26.449Z,101073.38
2022-10-25T19:32:55.377Z,101074.23
2022-10-25T19:35:24.180Z,101081.17
2022-10-25T19:38:17.648Z,101079.48
2022-10-25T19:40:46.394Z,101084.20
2022-10-25T19:43:15.000Z,101090.06
2022-10-25T19:45:43.557Z,101089.77
2022-10-25T19:48:16.690Z,101088.11
2022-10-25T19:50:45.096Z,101089.73
2022-10-25T19:53:13.469Z,101093.10
2022-10-25T19:55:41.902Z,101096.89
2022-10-25T19:58:10.346Z,101102.41
2022-10-25T20:00:39.080Z,101105.48
2022-10-25T20:03:07.473Z,101106.36
2022-10-25T20:05:36.350Z,101106.59
2022-10-25T20:08:05.303Z,101111.30
2022-10-25T20:10:33.687Z,101106.98
2022-10-25T20:13:03.601Z,101101.35
2022-10-25T20:15:33.230Z,101101.98
2022-10-25T20:18:01.592Z,101101.27
2022-10-25T20:20:29.992Z,101103.52
2022-10-25T20:22:58.458Z,101105.80
2022-10-25T20:25:27.432Z,101109.87
2022-10-25T20:27:56.754Z,101111.07
2022-10-25T20:30:25.199Z,101114.80
2022-10-25T20:32:53.852Z,101113.14
2022-10-25T20:35:24.775Z,101113.07
2022-10-25T20:37:55.497Z,101109.02
2022-10-25T20:40:23.920Z,101114.95
2022-10-25T20:42:52.501Z,101115.95
2022-10-25T20:45:20.870Z,101113.91
2022-10-25T20:47:50.060Z,101114.98
2022-10-25T20:50:18.795Z,101118.77
2022-10-25T20:52:52.800Z,101120.55
2022-10-25T20:55:35.671Z,101116.02
2022-10-25T20:58:04.189Z,101118.05
2022-10-25T21:00:32.913Z,101118.30
2022-10-25T21:03:01.408Z,101117.42
2022-10-25T21:05:30.856Z,101114.66
2022-10-25T21:07:59.205Z,101113.98
2022-10-25T21:10:27.568Z,101115.74
2022-10-25T21:12:58.067Z,101114.02
2022-10-25T21:15:26.560Z,101113.70
2022-10-25T21:17:54.940Z,101117.08
2022-10-25T21:20:25.077Z,101119.16
2022-10-25T21:22:54.858Z,101123.27
2022-10-25T21:25:23.346Z,101124.28
2022-10-25T21:27:55.556Z,101130.42
2022-10-25T21:30:24.290Z,101129.63
2022-10-25T21:32:52.669Z,101131.07
2022-10-25T21:35:21.370Z,101128.64
2022-10-25T21:37:50.171Z,101129.47
2022-10-25T21:40:19.179Z,101128.62
2022-10-25T21:42:47.632Z,101133.77
2022-10-25T21:45:16.712Z,101135.52
2022-10-25T21:47:45.633Z,101132.85
2022-10-25T21:50:15.211Z,101132.05
2022-10-25T21:52:43.878Z,101134.62
2022-10-25T21:55:12.326Z,101135.83
2022-10-25T21:57:40.705Z,101136.14
2022-10-25T22:00:12.375Z,101135.14
2022-10-25T22:02:45.355Z,101136.03
2022-10-25T22:05:13.929Z,101134.00
2022-10-25T22:07:42.422Z,101134.23
2022-10-25T22:10:13.305Z,101137.98
2022-10-25T22:12:42.014Z,101141.83
2022-10-25T22:15:11.060Z,101142.20
2022-10-25T22:17:46.554Z,101141.10
2022-10-25T22:20:15.089Z,101137.02
2022-10-25T22:22:43.527Z,101146.73
2022-10-25T22:25:11.935Z,101149.53
2022-10-25T22:27:40.471Z,101153.40
2022-10-25T22:30:11.589Z,101153.26
2022-10-25T22:32:39.937Z,101156.46
2022-10-25T22:35:09.129Z,101158.91
2022-10-25T22:37:37.532Z,101150.68
2022-10-25T22:40:07.762Z,101153.95
2022-10-25T22:42:36.199Z,101154.54
2022-10-25T22:45:05.729Z,101158.88
2022-10-25T22:47:34.114Z,101160.09
2022-10-25T22:50:02.433Z,101157.70
2022-10-25T22:52:30.869Z,101159.52
2022-10-25T22:54:59.323Z,101163.31
2022-10-25T22:57:29.531Z,101166.38
2022-10-25T22:59:57.845Z,101167.20
2022-10-25T23:02:26.287Z,101172.10
2022-10-25T23:04:54.651Z,101168.20
2022-10-25T23:07:22.981Z,101169.64
2022-10-25T23:09:51.341Z,101165.11
2022-10-25T23:12:19.691Z,101165.43
2022-10-25T23:14:48.060Z,101164.92
2022-10-25T23:17:16.433Z,101169.27
2022-10-25T23:19:44.823Z,101172.23
2022-10-25T23:22:13.143Z,101174.96
2022-10-25T23:24:41.450Z,101173.54
2022-10-25T23:27:09.850Z,101170.55
2022-10-25T23:29:38.253Z,101174.20
2022-10-25T23:32:06.648Z,101175.19
2022-10-25T23:34:35.000Z,101173.98
2022-10-25T23:37:03.306Z,101183.36
2022-10-25T23:39:31.829Z,101179.32
2022-10-25T23:42:00.308Z,101180.39
2022-10-25T23:44:29.026Z,101176.33
2022-10-25T23:46:57.363Z,101173.80
2022-10-25T23:49:25.704Z,101177.95
2022-10-25T23:51:54.125Z,101182.86
2022-10-25T23:54:22.461Z,101183.18
2022-10-25T23:56:50.752Z,101185.21
2022-10-25T23:59:19.077Z,101184.73
